createdAt,value
2022-08-17T00:00:34.492Z,46.40
2022-08-17T00:03:04.971Z,46.40
2022-08-17T00:05:34.024Z,46.40
2022-08-17T00:08:01.945Z,46.40
2022-08-17T00:10:29.944Z,46.50
2022-08-17T00:13:05.657Z,46.60
2022-08-17T00:15:33.676Z,46.60
2022-08-17T00:18:01.683Z,46.60
2022-08-17T00:20:30.502Z,46.70
2022-08-17T00:23:07.002Z,47.40
2022-08-17T00:25:35.180Z,46.90
2022-08-17T00:28:04.537Z,47.00
2022-08-17T00:30:51.190Z,47.10
2022-08-17T00:33:21.336Z,47.80
2022-08-17T00:35:49.516Z,47.10
2022-08-17T00:38:17.472Z,47.20
2022-08-17T00:40:46.696Z,47.40
2022-08-17T00:43:18.445Z,47.50
2022-08-17T00:45:46.523Z,47.60
2022-08-17T00:48:29.990Z,47.70
2022-08-17T00:51:02.498Z,47.80
2022-08-17T00:53:31.085Z,48.00
2022-08-17T00:55:59.156Z,48.30
2022-08-17T00:58:28.707Z,48.30
2022-08-17T01:01:05.173Z,48.50
2022-08-17T01:03:33.273Z,49.20
2022-08-17T01:06:01.724Z,48.70
2022-08-17T01:08:30.932Z,48.70
2022-08-17T01:11:01.967Z,48.80
2022-08-17T01:13:38.190Z,48.90
2022-08-17T01:16:11.138Z,49.00
2022-08-17T01:18:39.091Z,49.10
2022-08-17T01:21:11.527Z,49.20
2022-08-17T01:23:42.166Z,49.30
2022-08-17T01:26:10.128Z,49.30
2022-08-17T01:28:53.820Z,49.30
2022-08-17T01:31:24.575Z,49.90
2022-08-17T01:33:52.562Z,49.20
2022-08-17T01:36:20.604Z,49.20
2022-08-17T01:38:49.891Z,49.20
2022-08-17T01:41:18.160Z,49.20
2022-08-17T01:43:47.161Z,49.20
2022-08-17T01:46:16.668Z,49.10
2022-08-17T01:48:47.382Z,49.80
2022-08-17T01:51:15.901Z,49.00
2022-08-17T01:53:46.194Z,49.00
2022-08-17T01:56:17.241Z,49.10
2022-08-17T01:58:45.676Z,49.00
2022-08-17T02:01:14.826Z,49.10
2022-08-17T02:03:59.219Z,49.00
2022-08-17T02:06:29.396Z,49.00
2022-08-17T02:09:03.271Z,49.00
2022-08-17T02:11:33.700Z,48.90
2022-08-17T02:14:02.780Z,48.90
2022-08-17T02:16:36.714Z,48.90
2022-08-17T02:19:06.360Z,48.90
2022-08-17T02:21:34.290Z,48.90
2022-08-17T02:24:02.244Z,48.80
2022-08-17T02:26:30.262Z,48.80
2022-08-17T02:28:59.631Z,48.80
2022-08-17T02:31:27.540Z,48.90
2022-08-17T02:34:03.984Z,48.90
2022-08-17T02:36:33.249Z,48.90
2022-08-17T02:39:01.652Z,49.00
2022-08-17T02:41:29.718Z,49.00
2022-08-17T02:43:59.005Z,49.00
2022-08-17T02:46:27.032Z,48.90
2022-08-17T02:48:55.016Z,49.00
2022-08-17T02:51:22.972Z,49.10
2022-08-17T02:53:50.909Z,49.10
2022-08-17T02:56:18.887Z,49.10
2022-08-17T02:58:47.116Z,49.10
2022-08-17T03:01:16.508Z,49.10
2022-08-17T03:03:44.522Z,49.00
2022-08-17T03:06:12.640Z,49.10
2022-08-17T03:08:40.616Z,49.10
2022-08-17T03:11:08.607Z,49.10
2022-08-17T03:13:36.559Z,49.10
2022-08-17T03:16:04.867Z,49.20
2022-08-17T03:18:34.170Z,49.20
2022-08-17T03:21:04.219Z,49.20
2022-08-17T03:23:32.685Z,49.20
2022-08-17T03:26:01.050Z,49.80
2022-08-17T03:28:30.124Z,49.20
2022-08-17T03:30:58.459Z,49.30
2022-08-17T03:33:26.414Z,49.30
2022-08-17T03:35:55.662Z,49.30
2022-08-17T03:38:23.627Z,49.30
2022-08-17T03:40:58.203Z,49.30
2022-08-17T03:43:27.897Z,49.40
2022-08-17T03:46:28.122Z,49.50
2022-08-17T03:49:19.957Z,49.60
2022-08-17T03:52:06.734Z,49.70
2022-08-17T03:54:52.281Z,49.70
2022-08-17T03:57:20.339Z,49.80
2022-08-17T03:59:48.320Z,49.90
2022-08-17T04:02:19.900Z,49.90
2022-08-17T04:04:50.817Z,49.90
2022-08-17T04:07:20.803Z,50.00
2022-08-17T04:09:48.763Z,50.00
2022-08-17T04:12:16.950Z,50.00
2022-08-17T04:14:52.323Z,50.00
2022-08-17T04:17:23.301Z,50.00
2022-08-17T04:19:51.243Z,50.20
2022-08-17T04:22:31.204Z,50.10
2022-08-17T04:25:09.558Z,50.10
2022-08-17T04:27:37.675Z,50.20
2022-08-17T04:30:07.012Z,50.10
2022-08-17T04:36:30.242Z,50.20
2022-08-17T04:39:08.446Z,50.30
2022-08-17T04:41:53.634Z,50.30
2022-08-17T04:44:37.095Z,50.30
2022-08-17T04:47:07.205Z,50.30
2022-08-17T04:49:41.176Z,50.30
2022-08-17T04:52:09.172Z,50.30
2022-08-17T04:54:58.504Z,50.40
2022-08-17T04:57:26.499Z,50.40
2022-08-17T04:59:54.461Z,50.50
2022-08-17T05:02:22.436Z,50.50
2022-08-17T05:04:50.392Z,50.60
2022-08-17T05:07:23.092Z,50.60
2022-08-17T05:09:51.942Z,50.70
2022-08-17T05:12:21.254Z,51.40
2022-08-17T05:14:49.216Z,50.80
2022-08-17T05:17:17.189Z,50.90
2022-08-17T05:19:50.004Z,51.00
2022-08-17T05:22:19.748Z,51.00
2022-08-17T05:24:53.732Z,51.00
2022-08-17T05:27:24.944Z,51.00
2022-08-17T05:29:57.776Z,51.10
2022-08-17T05:32:38.702Z,51.00
2022-08-17T05:35:08.593Z,51.00
2022-08-17T05:37:36.600Z,51.10
2022-08-17T05:40:05.396Z,51.10
2022-08-17T05:42:35.240Z,51.10
2022-08-17T05:45:05.586Z,51.10
2022-08-17T05:47:33.566Z,51.20
2022-08-17T05:50:02.030Z,51.10
2022-08-17T05:52:33.843Z,51.20
2022-08-17T05:55:13.350Z,51.10
2022-08-17T05:57:53.770Z,51.10
2022-08-17T06:00:30.311Z,51.20
2022-08-17T06:03:09.417Z,51.20
2022-08-17T06:05:45.438Z,51.20
2022-08-17T06:08:16.388Z,51.20
2022-08-17T06:10:46.527Z,51.20
2022-08-17T06:13:19.831Z,51.20
2022-08-17T06:15:55.716Z,51.30
2022-08-17T06:18:23.854Z,51.30
2022-08-17T06:20:52.991Z,51.30
2022-08-17T06:23:25.105Z,51.30
2022-08-17T06:25:54.832Z,51.30
2022-08-17T06:28:27.084Z,51.40
2022-08-17T06:30:59.958Z,51.40
2022-08-17T06:33:32.214Z,51.50
2022-08-17T06:36:03.007Z,51.50
2022-08-17T06:38:43.007Z,51.50
2022-08-17T06:41:16.607Z,51.60
2022-08-17T06:43:51.834Z,51.70
2022-08-17T06:46:24.253Z,51.70
2022-08-17T06:48:57.431Z,51.70
2022-08-17T06:51:27.654Z,51.70
2022-08-17T06:54:00.136Z,51.70
2022-08-17T06:56:54.855Z,51.70
2022-08-17T06:59:23.564Z,51.70
2022-08-17T07:01:52.126Z,51.70
2022-08-17T07:04:21.404Z,51.80
2022-08-17T07:06:51.604Z,51.70
2022-08-17T07:09:23.235Z,51.80
2022-08-17T07:11:52.733Z,51.80
2022-08-17T07:14:31.856Z,51.70
2022-08-17T07:17:00.517Z,51.70
2022-08-17T07:19:31.510Z,51.70
2022-08-17T07:22:04.676Z,51.70
2022-08-17T07:24:35.663Z,51.80
2022-08-17T07:27:08.779Z,51.90
2022-08-17T07:29:41.744Z,52.00
2022-08-17T07:32:10.251Z,52.10
2022-08-17T07:35:11.185Z,52.10
2022-08-17T07:37:40.136Z,52.80
2022-08-17T07:40:20.626Z,52.40
2022-08-17T07:43:21.954Z,52.20
2022-08-17T07:46:19.101Z,52.30
2022-08-17T07:48:49.645Z,52.30
2022-08-17T07:51:25.191Z,52.20
2022-08-17T07:53:53.949Z,52.20
2022-08-17T07:56:34.655Z,52.30
2022-08-17T07:59:23.351Z,52.30
2022-08-17T08:02:06.159Z,52.20
2022-08-17T08:04:59.361Z,52.20
2022-08-17T08:07:26.770Z,52.30
2022-08-17T08:10:02.577Z,52.30
2022-08-17T08:12:34.348Z,52.30
2022-08-17T08:15:04.837Z,52.30
2022-08-17T08:17:36.528Z,52.40
2022-08-17T08:20:50.835Z,52.50
2022-08-17T08:23:00.487Z,52.50
2022-08-17T08:25:41.348Z,52.70
2022-08-17T08:28:17.900Z,52.70
2022-08-17T08:30:47.813Z,52.80
2022-08-17T08:33:30.487Z,52.90
2022-08-17T08:36:04.230Z,52.90
2022-08-17T08:38:38.304Z,52.90
2022-08-17T08:41:29.985Z,52.80
2022-08-17T08:44:03.725Z,52.80
2022-08-17T08:46:36.463Z,52.70
2022-08-17T08:49:59.050Z,52.70
2022-08-17T08:52:24.127Z,52.60
2022-08-17T08:54:54.830Z,52.60
2022-08-17T08:57:32.812Z,52.60
2022-08-17T09:00:08.763Z,52.60
2022-08-17T09:03:06.273Z,52.60
2022-08-17T09:05:43.461Z,52.60
2022-08-17T09:08:16.483Z,52.60
2022-08-17T09:10:53.325Z,52.60
2022-08-17T09:13:23.224Z,52.50
2022-08-17T09:15:55.021Z,53.20
2022-08-17T09:19:00.067Z,52.60
2022-08-17T09:21:18.246Z,53.20
2022-08-17T09:23:52.093Z,52.60
2022-08-17T09:26:22.862Z,52.60
2022-08-17T09:28:52.279Z,52.60
2022-08-17T09:31:21.451Z,52.70
2022-08-17T09:33:49.753Z,52.60
2022-08-17T09:36:21.760Z,52.60
2022-08-17T09:38:53.824Z,52.70
2022-08-17T09:41:23.200Z,52.70
2022-08-17T09:43:54.598Z,52.60
2022-08-17T09:46:24.995Z,52.70
2022-08-17T09:48:55.613Z,52.70
2022-08-17T09:51:28.785Z,52.70
2022-08-17T09:54:09.455Z,52.70
2022-08-17T09:57:00.792Z,52.70
2022-08-17T09:59:47.307Z,52.70
2022-08-17T10:02:31.697Z,52.70
2022-08-17T10:05:02.912Z,52.70
2022-08-17T10:07:34.220Z,52.70
2022-08-17T10:10:05.144Z,52.70
2022-08-17T10:12:36.905Z,52.60
2022-08-17T10:15:14.904Z,52.70
2022-08-17T10:17:53.986Z,52.70
2022-08-17T10:20:24.523Z,52.70
2022-08-17T10:23:14.452Z,52.70
2022-08-17T10:26:09.589Z,52.80
2022-08-17T10:28:40.393Z,52.80
2022-08-17T10:34:21.845Z,52.80
2022-08-17T10:36:54.684Z,52.90
2022-08-17T10:39:28.658Z,52.90
2022-08-17T10:41:57.764Z,52.90
2022-08-17T10:44:38.144Z,52.90
2022-08-17T10:47:09.646Z,52.90
2022-08-17T10:49:38.012Z,52.90
2022-08-17T10:52:25.013Z,52.80
2022-08-17T10:55:13.388Z,52.90
2022-08-17T10:57:43.333Z,52.90
2022-08-17T11:00:17.195Z,53.50
2022-08-17T11:02:50.891Z,52.90
2022-08-17T11:05:48.811Z,52.90
2022-08-17T11:08:47.875Z,52.90
2022-08-17T11:11:26.668Z,52.90
2022-08-17T11:14:01.561Z,52.90
2022-08-17T11:16:38.996Z,52.90
2022-08-17T11:19:19.696Z,53.00
2022-08-17T11:22:08.066Z,52.40
2022-08-17T11:24:36.190Z,53.00
2022-08-17T11:27:09.183Z,53.20
2022-08-17T11:29:52.374Z,53.30
2022-08-17T11:32:38.156Z,53.40
2022-08-17T11:35:35.761Z,53.40
2022-08-17T11:38:16.238Z,53.50
2022-08-17T11:41:02.104Z,53.70
2022-08-17T11:43:55.196Z,53.90
2022-08-17T11:46:51.682Z,54.00
2022-08-17T11:49:54.490Z,54.20
2022-08-17T11:52:39.926Z,54.20
2022-08-17T11:55:33.999Z,54.30
2022-08-17T11:58:00.960Z,54.30
2022-08-17T12:00:54.712Z,54.30
2022-08-17T12:03:53.985Z,54.40
2022-08-17T12:06:43.523Z,54.40
2022-08-17T12:09:15.718Z,54.50
2022-08-17T12:11:58.598Z,54.60
2022-08-17T12:15:08.332Z,54.60
2022-08-17T12:17:40.658Z,54.60
2022-08-17T12:20:14.643Z,54.70
2022-08-17T12:22:46.688Z,54.70
2022-08-17T12:25:17.898Z,54.70
2022-08-17T12:28:05.057Z,54.80
2022-08-17T12:30:35.403Z,54.80
2022-08-17T12:33:05.077Z,54.80
2022-08-17T12:35:36.375Z,54.90
2022-08-17T12:38:07.383Z,54.90
2022-08-17T12:40:55.645Z,54.90
2022-08-17T12:43:27.737Z,55.00
2022-08-17T12:45:57.900Z,55.00
2022-08-17T12:48:28.188Z,55.10
2022-08-17T12:51:00.335Z,55.10
2022-08-17T12:53:29.890Z,55.10
2022-08-17T12:55:57.961Z,55.20
2022-08-17T12:58:27.581Z,55.10
2022-08-17T13:00:59.439Z,55.10
2022-08-17T13:03:36.377Z,55.20
2022-08-17T13:06:06.490Z,55.30
2022-08-17T13:08:36.044Z,55.20
2022-08-17T13:11:05.376Z,55.20
2022-08-17T13:13:34.697Z,55.20
2022-08-17T13:16:03.585Z,55.30
2022-08-17T13:18:41.369Z,55.30
2022-08-17T13:21:19.194Z,55.30
2022-08-17T13:23:58.642Z,55.40
2022-08-17T13:26:29.417Z,55.40
2022-08-17T13:28:57.390Z,55.40
2022-08-17T13:31:39.449Z,55.40
2022-08-17T13:34:35.799Z,56.10
2022-08-17T13:37:33.134Z,55.40
2022-08-17T13:40:03.154Z,55.50
2022-08-17T13:42:51.700Z,55.40
2022-08-17T13:45:40.435Z,55.60
2022-08-17T13:48:14.451Z,55.60
2022-08-17T13:50:45.289Z,55.60
2022-08-17T13:53:18.027Z,55.60
2022-08-17T13:55:49.135Z,55.60
2022-08-17T13:58:24.424Z,55.60
2022-08-17T14:00:52.783Z,55.60
2022-08-17T14:03:20.981Z,55.60
2022-08-17T14:05:50.676Z,55.60
2022-08-17T14:08:19.425Z,55.60
2022-08-17T14:10:47.750Z,55.60
2022-08-17T14:13:15.695Z,55.60
2022-08-17T14:15:55.938Z,55.70
2022-08-17T14:18:50.549Z,55.80
2022-08-17T14:21:14.466Z,55.90
2022-08-17T14:23:49.963Z,55.90
2022-08-17T14:26:23.207Z,55.90
2022-08-17T14:28:56.344Z,55.90
2022-08-17T14:31:25.926Z,55.80
2022-08-17T14:33:54.076Z,55.80
2022-08-17T14:36:23.514Z,55.70
2022-08-17T14:38:51.518Z,55.70
2022-08-17T14:41:22.204Z,55.70
2022-08-17T14:43:52.874Z,55.80
2022-08-17T14:46:22.641Z,55.80
2022-08-17T14:48:57.154Z,55.70
2022-08-17T14:51:28.514Z,55.80
2022-08-17T14:53:57.180Z,55.80
2022-08-17T14:56:25.309Z,55.80
2022-08-17T14:58:53.298Z,55.80
2022-08-17T15:01:21.424Z,55.80
2022-08-17T15:03:49.490Z,55.80
2022-08-17T15:06:17.628Z,55.80
2022-08-17T15:08:46.978Z,55.80
2022-08-17T15:11:15.054Z,55.70
2022-08-17T15:13:52.730Z,55.70
2022-08-17T15:16:22.614Z,55.60
2022-08-17T15:18:52.672Z,55.60
2022-08-17T15:21:22.856Z,55.50
2022-08-17T15:23:52.205Z,55.50
2022-08-17T15:26:25.603Z,55.40
2022-08-17T15:28:56.012Z,55.30
2022-08-17T15:31:31.736Z,55.20
2022-08-17T15:34:00.408Z,55.20
2022-08-17T15:36:29.489Z,55.10
2022-08-17T15:38:58.984Z,55.10
2022-08-17T15:41:28.084Z,55.10
2022-08-17T15:43:56.090Z,55.00
2022-08-17T15:46:25.602Z,54.90
2022-08-17T15:48:55.005Z,55.00
2022-08-17T15:51:24.400Z,54.90
2022-08-17T15:53:54.492Z,54.90
2022-08-17T15:56:26.141Z,54.80
2022-08-17T15:58:55.090Z,54.80
2022-08-17T16:02:07.755Z,54.70
2022-08-17T16:04:26.958Z,54.70
2022-08-17T16:06:59.089Z,54.70
2022-08-17T16:09:27.219Z,54.70
2022-08-17T16:11:56.769Z,54.70
2022-08-17T16:14:30.338Z,54.70
2022-08-17T16:17:01.983Z,54.70
2022-08-17T16:19:29.944Z,54.60
2022-08-17T16:21:57.890Z,54.60
2022-08-17T16:24:25.858Z,54.60
2022-08-17T16:26:55.357Z,54.60
2022-08-17T16:29:24.678Z,54.60
2022-08-17T16:31:53.414Z,54.50
2022-08-17T16:34:21.740Z,54.50
2022-08-17T16:36:54.648Z,54.40
2022-08-17T16:39:23.881Z,54.40
2022-08-17T16:41:51.820Z,54.40
2022-08-17T16:44:21.074Z,54.30
2022-08-17T16:46:50.733Z,54.30
2022-08-17T16:49:36.355Z,54.30
2022-08-17T16:52:06.749Z,54.20
2022-08-17T16:54:35.381Z,54.20
2022-08-17T16:57:05.234Z,54.20
2022-08-17T16:59:41.082Z,54.20
2022-08-17T17:02:16.059Z,54.20
2022-08-17T17:04:47.486Z,54.10
2022-08-17T17:07:35.077Z,54.10
2022-08-17T17:10:06.202Z,54.20
2022-08-17T17:13:03.235Z,54.10
2022-08-17T17:15:22.447Z,54.10
2022-08-17T17:17:52.110Z,54.10
2022-08-17T17:20:23.336Z,54.10
2022-08-17T17:22:55.822Z,54.10
2022-08-17T17:25:26.862Z,54.10
2022-08-17T17:28:01.039Z,54.10
2022-08-17T17:30:33.112Z,54.10
2022-08-17T17:33:07.693Z,54.10
2022-08-17T17:35:36.862Z,54.00
2022-08-17T17:38:05.928Z,54.00
2022-08-17T17:40:36.634Z,54.00
2022-08-17T17:43:34.667Z,54.00
2022-08-17T17:45:56.412Z,54.00
2022-08-17T17:48:28.960Z,53.90
2022-08-17T17:51:05.389Z,53.90
2022-08-17T17:53:42.999Z,53.90
2022-08-17T17:56:34.303Z,53.90
2022-08-17T17:59:05.063Z,53.90
2022-08-17T18:01:45.795Z,53.90
2022-08-17T18:04:21.487Z,53.90
2022-08-17T18:07:02.829Z,54.10
2022-08-17T18:09:40.769Z,54.00
2022-08-17T18:12:13.621Z,53.90
2022-08-17T18:14:58.269Z,54.00
2022-08-17T18:17:27.414Z,54.00
2022-08-17T18:19:56.709Z,54.00
2022-08-17T18:22:24.826Z,54.70
2022-08-17T18:24:55.888Z,54.10
2022-08-17T18:27:27.387Z,54.10
2022-08-17T18:29:55.848Z,54.10
2022-08-17T18:32:27.136Z,54.20
2022-08-17T18:34:57.920Z,54.20
2022-08-17T18:37:34.564Z,54.10
2022-08-17T18:40:24.397Z,54.70
2022-08-17T18:42:59.216Z,54.20
2022-08-17T18:45:33.256Z,54.10
2022-08-17T18:48:01.425Z,54.20
2022-08-17T18:50:39.479Z,54.20
2022-08-17T18:53:30.336Z,54.20
2022-08-17T18:56:25.676Z,54.20
2022-08-17T18:58:59.619Z,54.30
2022-08-17T19:01:41.757Z,54.30
2022-08-17T19:04:32.780Z,54.40
2022-08-17T19:07:12.988Z,54.40
2022-08-17T19:09:43.661Z,54.30
2022-08-17T19:12:15.339Z,54.40
2022-08-17T19:14:43.483Z,54.40
2022-08-17T19:17:12.751Z,54.40
2022-08-17T19:19:43.495Z,54.50
2022-08-17T19:22:14.429Z,54.50
2022-08-17T19:25:02.629Z,54.50
2022-08-17T19:27:41.852Z,54.40
2022-08-17T19:30:13.537Z,54.40
2022-08-17T19:32:41.746Z,54.50
2022-08-17T19:35:15.133Z,54.50
2022-08-17T19:37:52.867Z,54.60
2022-08-17T19:40:51.087Z,54.50
2022-08-17T19:43:15.784Z,54.50
2022-08-17T19:45:49.737Z,55.20
2022-08-17T19:48:23.916Z,54.40
2022-08-17T19:50:55.345Z,54.50
2022-08-17T19:53:54.122Z,55.20
2022-08-17T19:56:22.365Z,55.10
2022-08-17T19:58:56.853Z,54.40
2022-08-17T20:01:34.514Z,54.50
2022-08-17T20:04:07.601Z,54.50
2022-08-17T20:06:36.891Z,54.50
2022-08-17T20:09:14.944Z,55.20
2022-08-17T20:11:46.009Z,54.50
2022-08-17T20:14:15.674Z,54.40
2022-08-17T20:16:43.694Z,54.40
2022-08-17T20:19:18.040Z,54.50
2022-08-17T20:21:54.102Z,54.50
2022-08-17T20:24:29.245Z,54.50
2022-08-17T20:26:59.728Z,54.40
2022-08-17T20:29:39.612Z,54.40
2022-08-17T20:32:22.674Z,54.30
2022-08-17T20:34:52.442Z,54.90
2022-08-17T20:37:29.550Z,54.40
2022-08-17T20:40:18.933Z,54.30
2022-08-17T20:42:46.944Z,54.30
2022-08-17T20:45:48.288Z,54.70
2022-08-17T20:48:36.977Z,54.30
2022-08-17T20:51:17.065Z,54.20
2022-08-17T20:54:06.601Z,54.30
2022-08-17T20:56:57.462Z,54.20
2022-08-17T20:59:57.520Z,54.20
2022-08-17T21:02:26.848Z,54.20
2022-08-17T21:05:32.350Z,54.20
2022-08-17T21:08:13.901Z,54.20
2022-08-17T21:10:41.885Z,54.10
2022-08-17T21:13:41.876Z,54.10
2022-08-17T21:16:24.801Z,54.10
2022-08-17T21:18:56.308Z,54.00
2022-08-17T21:21:27.049Z,54.70
2022-08-17T21:24:16.922Z,54.10
2022-08-17T21:26:51.098Z,54.10
2022-08-17T21:29:30.905Z,54.00
2022-08-17T21:32:24.312Z,54.00
2022-08-17T21:35:30.081Z,54.00
2022-08-17T21:38:03.607Z,54.00
2022-08-17T21:40:32.320Z,53.90
2022-08-17T21:43:01.493Z,54.00
2022-08-17T21:45:32.012Z,54.00
2022-08-17T21:48:14.185Z,53.90
2022-08-17T21:50:44.252Z,53.90
2022-08-17T21:53:14.619Z,53.90
2022-08-17T21:55:42.572Z,53.80
2022-08-17T21:58:29.925Z,53.90
2022-08-17T22:01:20.830Z,53.80
2022-08-17T22:03:55.579Z,53.80
2022-08-17T22:06:25.358Z,53.70
2022-08-17T22:09:07.957Z,53.80
2022-08-17T22:11:52.425Z,53.80
2022-08-17T22:14:22.331Z,53.80
2022-08-17T22:17:06.460Z,54.30
2022-08-17T22:19:34.948Z,53.70
2022-08-17T22:22:07.317Z,53.60
2022-08-17T22:24:36.780Z,53.60
2022-08-17T22:27:07.998Z,53.50
2022-08-17T22:29:57.616Z,53.50
2022-08-17T22:32:38.868Z,53.50
2022-08-17T22:35:26.295Z,53.50
2022-08-17T22:37:54.264Z,53.50
2022-08-17T22:40:26.484Z,53.50
2022-08-17T22:42:54.459Z,53.40
2022-08-17T22:45:23.857Z,53.40
2022-08-17T22:47:55.645Z,53.40
2022-08-17T22:50:24.461Z,53.40
2022-08-17T22:53:17.375Z,53.40
2022-08-17T22:56:08.798Z,53.30
2022-08-17T22:58:58.749Z,53.30
2022-08-17T23:01:29.192Z,53.30
2022-08-17T23:03:59.520Z,53.30
2022-08-17T23:06:27.474Z,53.30
2022-08-17T23:08:56.584Z,53.30
2022-08-17T23:11:36.944Z,53.30
2022-08-17T23:14:14.512Z,53.20
2022-08-17T23:16:43.521Z,53.90
2022-08-17T23:19:13.645Z,53.30
2022-08-17T23:21:41.634Z,53.30
2022-08-17T23:24:10.590Z,53.30
2022-08-17T23:26:40.760Z,53.20
2022-08-17T23:29:09.408Z,53.20
2022-08-17T23:31:38.577Z,53.10
2022-08-17T23:34:09.037Z,53.10
2022-08-17T23:36:38.558Z,53.70
2022-08-17T23:39:06.699Z,53.00
2022-08-17T23:41:36.449Z,53.00
2022-08-17T23:44:08.679Z,53.00
2022-08-17T23:46:36.650Z,53.10
2022-08-17T23:49:04.633Z,53.70
2022-08-17T23:51:34.642Z,53.10
2022-08-17T23:54:08.380Z,53.10
2022-08-17T23:56:41.896Z,53.10
2022-08-17T23:59:09.992Z,53.10
